sensor_id;sensor_type;location;lat;lon;timestamp;P1;durP1;ratioP1;P2;durP2;ratioP2
16667;SDS011;8447;52.630;4.734;2023-04-08T00:02:00;16.23;;;10.43;;
16667;SDS011;8447;52.630;4.734;2023-04-08T00:04:27;18.53;;;11.23;;
16667;SDS011;8447;52.630;4.734;2023-04-08T00:06:53;18.03;;;10.93;;
16667;SDS011;8447;52.630;4.734;2023-04-08T00:09:20;15.60;;;10.30;;
16667;SDS011;8447;52.630;4.734;2023-04-08T00:11:46;18.30;;;10.97;;
16667;SDS011;8447;52.630;4.734;2023-04-08T00:14:13;15.77;;;10.03;;
16667;SDS011;8447;52.630;4.734;2023-04-08T00:16:41;14.67;;;10.20;;
16667;SDS011;8447;52.630;4.734;2023-04-08T00:19:07;18.33;;;10.73;;
16667;SDS011;8447;52.630;4.734;2023-04-08T00:21:34;17.13;;;10.60;;
16667;SDS011;8447;52.630;4.734;2023-04-08T00:24:00;16.20;;;10.43;;
16667;SDS011;8447;52.630;4.734;2023-04-08T00:26:26;17.47;;;10.07;;
16667;SDS011;8447;52.630;4.734;2023-04-08T00:28:53;15.83;;;10.50;;
16667;SDS011;8447;52.630;4.734;2023-04-08T00:31:19;25.30;;;9.47;;
16667;SDS011;8447;52.630;4.734;2023-04-08T00:33:47;18.57;;;8.43;;
16667;SDS011;8447;52.630;4.734;2023-04-08T00:36:14;21.27;;;7.37;;
16667;SDS011;8447;52.630;4.734;2023-04-08T00:38:40;13.53;;;5.67;;
16667;SDS011;8447;52.630;4.734;2023-04-08T00:41:06;12.37;;;5.33;;
16667;SDS011;8447;52.630;4.734;2023-04-08T00:43:33;13.50;;;5.40;;
16667;SDS011;8447;52.630;4.734;2023-04-08T00:45:59;8.33;;;5.03;;
16667;SDS011;8447;52.630;4.734;2023-04-08T00:48:25;17.50;;;4.30;;
16667;SDS011;8447;52.630;4.734;2023-04-08T00:50:53;9.10;;;4.37;;
16667;SDS011;8447;52.630;4.734;2023-04-08T00:53:19;14.57;;;3.67;;
16667;SDS011;8447;52.630;4.734;2023-04-08T00:55:46;7.53;;;3.47;;
16667;SDS011;8447;52.630;4.734;2023-04-08T00:58:12;9.43;;;3.47;;
16667;SDS011;8447;52.630;4.734;2023-04-08T01:00:40;7.67;;;3.13;;
16667;SDS011;8447;52.630;4.734;2023-04-08T01:03:09;6.47;;;3.33;;
16667;SDS011;8447;52.630;4.734;2023-04-08T01:05:39;6.33;;;2.93;;
16667;SDS011;8447;52.630;4.734;2023-04-08T01:08:09;10.57;;;3.90;;
16667;SDS011;8447;52.630;4.734;2023-04-08T01:10:37;3.80;;;3.40;;
16667;SDS011;8447;52.630;4.734;2023-04-08T01:13:07;5.57;;;4.10;;
16667;SDS011;8447;52.630;4.734;2023-04-08T01:15:36;4.50;;;4.03;;
16667;SDS011;8447;52.630;4.734;2023-04-08T01:18:05;4.60;;;4.20;;
16667;SDS011;8447;52.630;4.734;2023-04-08T01:20:32;4.20;;;3.80;;
16667;SDS011;8447;52.630;4.734;2023-04-08T01:23:01;4.27;;;3.60;;
16667;SDS011;8447;52.630;4.734;2023-04-08T01:25:30;5.93;;;4.07;;
16667;SDS011;8447;52.630;4.734;2023-04-08T01:27:58;5.07;;;4.57;;
16667;SDS011;8447;52.630;4.734;2023-04-08T01:30:25;5.27;;;4.77;;
16667;SDS011;8447;52.630;4.734;2023-04-08T01:32:54;5.83;;;4.20;;
16667;SDS011;8447;52.630;4.734;2023-04-08T01:35:21;5.43;;;4.20;;
16667;SDS011;8447;52.630;4.734;2023-04-08T01:37:49;4.57;;;4.17;;
16667;SDS011;8447;52.630;4.734;2023-04-08T01:40:16;4.90;;;4.40;;
16667;SDS011;8447;52.630;4.734;2023-04-08T01:42:43;5.60;;;4.70;;
16667;SDS011;8447;52.630;4.734;2023-04-08T01:45:11;6.57;;;4.77;;
16667;SDS011;8447;52.630;4.734;2023-04-08T01:47:38;4.63;;;4.20;;
16667;SDS011;8447;52.630;4.734;2023-04-08T01:50:05;4.67;;;4.13;;
16667;SDS011;8447;52.630;4.734;2023-04-08T01:52:32;7.03;;;4.80;;
16667;SDS011;8447;52.630;4.734;2023-04-08T01:55:00;6.93;;;4.57;;
16667;SDS011;8447;52.630;4.734;2023-04-08T01:57:27;5.17;;;4.67;;
16667;SDS011;8447;52.630;4.734;2023-04-08T01:59:55;5.87;;;4.50;;
16667;SDS011;8447;52.630;4.734;2023-04-08T02:02:23;5.50;;;4.60;;
16667;SDS011;8447;52.630;4.734;2023-04-08T02:04:52;5.87;;;5.00;;
16667;SDS011;8447;52.630;4.734;2023-04-08T02:07:18;4.83;;;4.33;;
16667;SDS011;8447;52.630;4.734;2023-04-08T02:09:45;5.87;;;4.73;;
16667;SDS011;8447;52.630;4.734;2023-04-08T02:12:11;6.43;;;4.60;;
16667;SDS011;8447;52.630;4.734;2023-04-08T02:14:38;4.97;;;4.53;;
16667;SDS011;8447;52.630;4.734;2023-04-08T02:17:08;6.90;;;5.20;;
16667;SDS011;8447;52.630;4.734;2023-04-08T02:19:39;6.70;;;5.20;;
16667;SDS011;8447;52.630;4.734;2023-04-08T02:22:08;6.90;;;5.50;;
16667;SDS011;8447;52.630;4.734;2023-04-08T02:24:37;6.20;;;5.27;;
16667;SDS011;8447;52.630;4.734;2023-04-08T02:27:04;5.60;;;5.00;;
16667;SDS011;8447;52.630;4.734;2023-04-08T02:29:31;7.23;;;5.57;;
16667;SDS011;8447;52.630;4.734;2023-04-08T02:31:57;5.53;;;4.97;;
16667;SDS011;8447;52.630;4.734;2023-04-08T02:34:25;7.07;;;5.60;;
16667;SDS011;8447;52.630;4.734;2023-04-08T02:36:53;8.17;;;5.10;;
16667;SDS011;8447;52.630;4.734;2023-04-08T02:39:20;7.90;;;5.50;;
16667;SDS011;8447;52.630;4.734;2023-04-08T02:41:46;6.57;;;5.90;;
16667;SDS011;8447;52.630;4.734;2023-04-08T02:44:12;7.23;;;5.40;;
16667;SDS011;8447;52.630;4.734;2023-04-08T02:46:39;6.73;;;5.60;;
16667;SDS011;8447;52.630;4.734;2023-04-08T02:49:05;7.00;;;5.50;;
16667;SDS011;8447;52.630;4.734;2023-04-08T02:51:32;6.67;;;5.77;;
16667;SDS011;8447;52.630;4.734;2023-04-08T02:53:59;6.80;;;5.63;;
16667;SDS011;8447;52.630;4.734;2023-04-08T02:56:26;6.80;;;5.33;;
16667;SDS011;8447;52.630;4.734;2023-04-08T02:58:52;7.00;;;5.90;;
16667;SDS011;8447;52.630;4.734;2023-04-08T03:01:19;6.17;;;5.57;;
16667;SDS011;8447;52.630;4.734;2023-04-08T03:03:45;7.47;;;6.20;;
16667;SDS011;8447;52.630;4.734;2023-04-08T03:06:12;7.50;;;5.57;;
16667;SDS011;8447;52.630;4.734;2023-04-08T03:08:38;6.30;;;5.70;;
16667;SDS011;8447;52.630;4.734;2023-04-08T03:11:06;6.47;;;5.47;;
16667;SDS011;8447;52.630;4.734;2023-04-08T03:13:33;6.20;;;5.40;;
16667;SDS011;8447;52.630;4.734;2023-04-08T03:15:59;7.63;;;5.43;;
16667;SDS011;8447;52.630;4.734;2023-04-08T03:18:26;7.23;;;5.70;;
16667;SDS011;8447;52.630;4.734;2023-04-08T03:20:52;6.77;;;5.70;;
16667;SDS011;8447;52.630;4.734;2023-04-08T03:23:18;7.37;;;5.63;;
16667;SDS011;8447;52.630;4.734;2023-04-08T03:25:45;7.47;;;5.50;;
16667;SDS011;8447;52.630;4.734;2023-04-08T03:28:13;6.03;;;5.47;;
16667;SDS011;8447;52.630;4.734;2023-04-08T03:30:39;6.47;;;5.40;;
16667;SDS011;8447;52.630;4.734;2023-04-08T03:33:05;6.33;;;5.57;;
16667;SDS011;8447;52.630;4.734;2023-04-08T03:35:32;7.07;;;5.50;;
16667;SDS011;8447;52.630;4.734;2023-04-08T03:37:59;7.50;;;5.70;;
16667;SDS011;8447;52.630;4.734;2023-04-08T03:40:25;8.63;;;6.30;;
16667;SDS011;8447;52.630;4.734;2023-04-08T03:42:51;6.77;;;5.43;;
16667;SDS011;8447;52.630;4.734;2023-04-08T03:45:19;10.60;;;6.00;;
16667;SDS011;8447;52.630;4.734;2023-04-08T03:47:46;7.20;;;6.00;;
16667;SDS011;8447;52.630;4.734;2023-04-08T03:50:12;9.23;;;5.60;;
16667;SDS011;8447;52.630;4.734;2023-04-08T03:52:38;7.37;;;5.67;;
16667;SDS011;8447;52.630;4.734;2023-04-08T03:55:05;6.10;;;5.50;;
16667;SDS011;8447;52.630;4.734;2023-04-08T03:57:32;6.40;;;5.67;;
16667;SDS011;8447;52.630;4.734;2023-04-08T03:59:58;7.03;;;6.20;;
16667;SDS011;8447;52.630;4.734;2023-04-08T04:02:26;7.33;;;5.40;;
16667;SDS011;8447;52.630;4.734;2023-04-08T04:04:52;6.33;;;4.90;;
16667;SDS011;8447;52.630;4.734;2023-04-08T04:07:19;7.50;;;5.50;;
16667;SDS011;8447;52.630;4.734;2023-04-08T04:09:45;5.73;;;5.17;;
16667;SDS011;8447;52.630;4.734;2023-04-08T04:12:11;7.37;;;5.90;;
16667;SDS011;8447;52.630;4.734;2023-04-08T04:14:38;8.30;;;4.90;;
16667;SDS011;8447;52.630;4.734;2023-04-08T04:17:04;6.80;;;5.40;;
16667;SDS011;8447;52.630;4.734;2023-04-08T04:19:32;5.97;;;5.27;;
16667;SDS011;8447;52.630;4.734;2023-04-08T04:21:58;8.20;;;5.40;;
16667;SDS011;8447;52.630;4.734;2023-04-08T04:24:25;6.23;;;5.23;;
16667;SDS011;8447;52.630;4.734;2023-04-08T04:26:51;9.93;;;5.73;;
16667;SDS011;8447;52.630;4.734;2023-04-08T04:29:17;7.67;;;5.40;;
16667;SDS011;8447;52.630;4.734;2023-04-08T04:31:44;6.37;;;5.70;;
16667;SDS011;8447;52.630;4.734;2023-04-08T04:34:11;7.17;;;5.43;;
16667;SDS011;8447;52.630;4.734;2023-04-08T04:36:39;7.73;;;5.67;;
16667;SDS011;8447;52.630;4.734;2023-04-08T04:39:05;8.87;;;5.47;;
16667;SDS011;8447;52.630;4.734;2023-04-08T04:41:31;6.33;;;5.37;;
16667;SDS011;8447;52.630;4.734;2023-04-08T04:43:59;6.10;;;5.30;;
16667;SDS011;8447;52.630;4.734;2023-04-08T04:46:25;6.37;;;5.53;;
16667;SDS011;8447;52.630;4.734;2023-04-08T04:48:52;5.87;;;4.93;;
16667;SDS011;8447;52.630;4.734;2023-04-08T04:51:18;8.20;;;5.37;;
16667;SDS011;8447;52.630;4.734;2023-04-08T04:53:46;6.13;;;4.97;;
16667;SDS011;8447;52.630;4.734;2023-04-08T04:56:13;6.80;;;4.97;;
16667;SDS011;8447;52.630;4.734;2023-04-08T04:58:39;9.03;;;5.40;;
16667;SDS011;8447;52.630;4.734;2023-04-08T05:01:06;5.57;;;4.93;;
16667;SDS011;8447;52.630;4.734;2023-04-08T05:03:32;7.20;;;4.53;;
16667;SDS011;8447;52.630;4.734;2023-04-08T05:05:58;7.87;;;5.37;;
16667;SDS011;8447;52.630;4.734;2023-04-08T05:08:25;5.70;;;4.87;;
16667;SDS011;8447;52.630;4.734;2023-04-08T05:10:53;6.80;;;4.83;;
16667;SDS011;8447;52.630;4.734;2023-04-08T05:13:20;5.73;;;5.10;;
16667;SDS011;8447;52.630;4.734;2023-04-08T05:15:46;7.57;;;5.10;;
16667;SDS011;8447;52.630;4.734;2023-04-08T05:18:13;6.30;;;4.80;;
16667;SDS011;8447;52.630;4.734;2023-04-08T05:20:39;6.57;;;5.00;;
16667;SDS011;8447;52.630;4.734;2023-04-08T05:23:06;6.50;;;5.03;;
16667;SDS011;8447;52.630;4.734;2023-04-08T05:25:32;5.93;;;4.63;;
16667;SDS011;8447;52.630;4.734;2023-04-08T05:28:00;10.00;;;5.37;;
16667;SDS011;8447;52.630;4.734;2023-04-08T05:30:26;6.23;;;4.50;;
16667;SDS011;8447;52.630;4.734;2023-04-08T05:32:53;7.30;;;4.70;;
16667;SDS011;8447;52.630;4.734;2023-04-08T05:35:19;6.17;;;4.90;;
16667;SDS011;8447;52.630;4.734;2023-04-08T05:37:46;6.30;;;4.80;;
16667;SDS011;8447;52.630;4.734;2023-04-08T05:40:12;6.57;;;5.17;;
16667;SDS011;8447;52.630;4.734;2023-04-08T05:42:38;5.60;;;5.00;;
16667;SDS011;8447;52.630;4.734;2023-04-08T05:45:08;6.77;;;5.17;;
16667;SDS011;8447;52.630;4.734;2023-04-08T05:47:34;6.17;;;4.73;;
16667;SDS011;8447;52.630;4.734;2023-04-08T05:50:01;6.00;;;4.87;;
16667;SDS011;8447;52.630;4.734;2023-04-08T05:52:27;9.40;;;5.23;;
16667;SDS011;8447;52.630;4.734;2023-04-08T05:54:53;5.83;;;4.93;;
16667;SDS011;8447;52.630;4.734;2023-04-08T05:57:20;6.80;;;5.30;;
16667;SDS011;8447;52.630;4.734;2023-04-08T05:59:46;6.97;;;5.40;;
16667;SDS011;8447;52.630;4.734;2023-04-08T06:02:14;7.20;;;5.20;;
16667;SDS011;8447;52.630;4.734;2023-04-08T06:04:40;6.90;;;4.87;;
16667;SDS011;8447;52.630;4.734;2023-04-08T06:07:07;5.90;;;4.43;;
16667;SDS011;8447;52.630;4.734;2023-04-08T06:09:34;5.87;;;4.83;;
16667;SDS011;8447;52.630;4.734;2023-04-08T06:12:00;7.43;;;5.10;;
16667;SDS011;8447;52.630;4.734;2023-04-08T06:14:26;6.10;;;4.83;;
16667;SDS011;8447;52.630;4.734;2023-04-08T06:16:53;5.83;;;4.77;;
16667;SDS011;8447;52.630;4.734;2023-04-08T06:19:22;5.17;;;4.60;;
16667;SDS011;8447;52.630;4.734;2023-04-08T06:21:48;5.97;;;4.70;;
16667;SDS011;8447;52.630;4.734;2023-04-08T06:24:15;6.20;;;5.07;;
16667;SDS011;8447;52.630;4.734;2023-04-08T06:26:41;11.10;;;4.87;;
16667;SDS011;8447;52.630;4.734;2023-04-08T06:29:08;5.07;;;4.23;;
16667;SDS011;8447;52.630;4.734;2023-04-08T06:31:34;6.03;;;4.70;;
16667;SDS011;8447;52.630;4.734;2023-04-08T06:34:01;5.37;;;4.57;;
16667;SDS011;8447;52.630;4.734;2023-04-08T06:36:28;6.43;;;5.00;;
16667;SDS011;8447;52.630;4.734;2023-04-08T06:38:55;7.10;;;4.43;;
16667;SDS011;8447;52.630;4.734;2023-04-08T06:41:21;8.03;;;4.87;;
16667;SDS011;8447;52.630;4.734;2023-04-08T06:43:48;5.53;;;4.90;;
16667;SDS011;8447;52.630;4.734;2023-04-08T06:46:14;7.30;;;5.20;;
16667;SDS011;8447;52.630;4.734;2023-04-08T06:48:41;5.80;;;5.23;;
16667;SDS011;8447;52.630;4.734;2023-04-08T06:51:07;9.00;;;5.43;;
16667;SDS011;8447;52.630;4.734;2023-04-08T06:53:35;6.77;;;5.07;;
16667;SDS011;8447;52.630;4.734;2023-04-08T06:56:01;6.33;;;4.17;;
16667;SDS011;8447;52.630;4.734;2023-04-08T06:58:27;7.07;;;5.07;;
16667;SDS011;8447;52.630;4.734;2023-04-08T07:00:55;6.30;;;4.90;;
16667;SDS011;8447;52.630;4.734;2023-04-08T07:03:21;6.30;;;4.93;;
16667;SDS011;8447;52.630;4.734;2023-04-08T07:05:47;6.57;;;5.23;;
16667;SDS011;8447;52.630;4.734;2023-04-08T07:08:14;7.73;;;5.23;;
16667;SDS011;8447;52.630;4.734;2023-04-08T07:10:42;6.90;;;5.23;;
16667;SDS011;8447;52.630;4.734;2023-04-08T07:13:08;6.90;;;5.87;;
16667;SDS011;8447;52.630;4.734;2023-04-08T07:15:35;6.97;;;5.57;;
16667;SDS011;8447;52.630;4.734;2023-04-08T07:18:01;6.33;;;5.60;;
16667;SDS011;8447;52.630;4.734;2023-04-08T07:20:28;8.27;;;5.77;;
16667;SDS011;8447;52.630;4.734;2023-04-08T07:22:55;5.83;;;5.07;;
16667;SDS011;8447;52.630;4.734;2023-04-08T07:25:21;7.47;;;5.60;;
16667;SDS011;8447;52.630;4.734;2023-04-08T07:27:49;7.03;;;5.33;;
16667;SDS011;8447;52.630;4.734;2023-04-08T07:30:16;6.00;;;5.50;;
16667;SDS011;8447;52.630;4.734;2023-04-08T07:32:43;5.90;;;5.30;;
16667;SDS011;8447;52.630;4.734;2023-04-08T07:35:09;6.43;;;5.83;;
16667;SDS011;8447;52.630;4.734;2023-04-08T07:37:35;6.60;;;5.90;;
16667;SDS011;8447;52.630;4.734;2023-04-08T07:40:02;6.63;;;5.70;;
16667;SDS011;8447;52.630;4.734;2023-04-08T07:42:28;6.57;;;5.87;;
16667;SDS011;8447;52.630;4.734;2023-04-08T07:44:56;7.00;;;6.30;;
16667;SDS011;8447;52.630;4.734;2023-04-08T07:47:22;6.03;;;5.50;;
16667;SDS011;8447;52.630;4.734;2023-04-08T07:49:49;6.97;;;6.10;;
16667;SDS011;8447;52.630;4.734;2023-04-08T07:52:15;7.33;;;5.70;;
16667;SDS011;8447;52.630;4.734;2023-04-08T07:54:42;6.20;;;5.60;;
16667;SDS011;8447;52.630;4.734;2023-04-08T07:57:08;6.37;;;5.67;;
16667;SDS011;8447;52.630;4.734;2023-04-08T07:59:34;8.43;;;5.93;;
16667;SDS011;8447;52.630;4.734;2023-04-08T08:02:02;6.47;;;5.60;;
16667;SDS011;8447;52.630;4.734;2023-04-08T08:04:28;6.70;;;5.57;;
16667;SDS011;8447;52.630;4.734;2023-04-08T08:06:55;6.43;;;5.83;;
16667;SDS011;8447;52.630;4.734;2023-04-08T08:09:22;6.43;;;5.67;;
16667;SDS011;8447;52.630;4.734;2023-04-08T08:11:48;5.70;;;5.13;;
16667;SDS011;8447;52.630;4.734;2023-04-08T08:14:14;6.77;;;6.07;;
16667;SDS011;8447;52.630;4.734;2023-04-08T08:16:41;10.23;;;5.73;;
16667;SDS011;8447;52.630;4.734;2023-04-08T08:19:09;6.57;;;5.97;;
16667;SDS011;8447;52.630;4.734;2023-04-08T08:21:38;6.70;;;6.00;;
16667;SDS011;8447;52.630;4.734;2023-04-08T08:24:04;6.77;;;6.00;;
16667;SDS011;8447;52.630;4.734;2023-04-08T08:26:33;6.63;;;6.03;;
16667;SDS011;8447;52.630;4.734;2023-04-08T08:28:59;7.47;;;6.30;;
16667;SDS011;8447;52.630;4.734;2023-04-08T08:31:26;6.20;;;5.60;;
16667;SDS011;8447;52.630;4.734;2023-04-08T08:33:52;6.67;;;5.97;;
16667;SDS011;8447;52.630;4.734;2023-04-08T08:36:20;6.27;;;5.67;;
16667;SDS011;8447;52.630;4.734;2023-04-08T08:38:46;6.57;;;5.80;;
16667;SDS011;8447;52.630;4.734;2023-04-08T08:41:13;7.67;;;5.57;;
16667;SDS011;8447;52.630;4.734;2023-04-08T08:43:39;11.47;;;6.47;;
16667;SDS011;8447;52.630;4.734;2023-04-08T08:46:06;6.63;;;6.00;;
16667;SDS011;8447;52.630;4.734;2023-04-08T08:48:35;8.50;;;5.97;;
16667;SDS011;8447;52.630;4.734;2023-04-08T08:51:06;7.50;;;6.23;;
16667;SDS011;8447;52.630;4.734;2023-04-08T08:53:34;6.33;;;5.73;;
16667;SDS011;8447;52.630;4.734;2023-04-08T08:56:00;6.67;;;5.97;;
16667;SDS011;8447;52.630;4.734;2023-04-08T08:58:27;6.90;;;6.20;;
16667;SDS011;8447;52.630;4.734;2023-04-08T09:00:53;6.40;;;5.60;;
16667;SDS011;8447;52.630;4.734;2023-04-08T09:03:20;6.60;;;5.90;;
16667;SDS011;8447;52.630;4.734;2023-04-08T09:05:47;5.80;;;5.30;;
16667;SDS011;8447;52.630;4.734;2023-04-08T09:08:24;6.80;;;6.20;;
16667;SDS011;8447;52.630;4.734;2023-04-08T09:10:52;7.27;;;6.57;;
16667;SDS011;8447;52.630;4.734;2023-04-08T09:13:18;7.97;;;6.50;;
16667;SDS011;8447;52.630;4.734;2023-04-08T09:15:59;9.57;;;6.67;;
16667;SDS011;8447;52.630;4.734;2023-04-08T09:18:25;6.13;;;5.53;;
16667;SDS011;8447;52.630;4.734;2023-04-08T09:20:52;8.17;;;6.03;;
16667;SDS011;8447;52.630;4.734;2023-04-08T09:23:18;6.13;;;5.53;;
16667;SDS011;8447;52.630;4.734;2023-04-08T09:25:45;5.87;;;5.37;;
16667;SDS011;8447;52.630;4.734;2023-04-08T09:28:18;6.13;;;5.60;;
16667;SDS011;8447;52.630;4.734;2023-04-08T09:30:45;6.73;;;6.13;;
16667;SDS011;8447;52.630;4.734;2023-04-08T09:33:12;6.00;;;5.50;;
16667;SDS011;8447;52.630;4.734;2023-04-08T09:35:38;6.73;;;6.03;;
16667;SDS011;8447;52.630;4.734;2023-04-08T09:38:04;6.63;;;6.03;;
16667;SDS011;8447;52.630;4.734;2023-04-08T09:40:31;6.60;;;5.87;;
16667;SDS011;8447;52.630;4.734;2023-04-08T09:42:58;6.43;;;5.83;;
16667;SDS011;8447;52.630;4.734;2023-04-08T09:45:29;5.77;;;5.23;;
16667;SDS011;8447;52.630;4.734;2023-04-08T09:47:56;6.03;;;5.13;;
16667;SDS011;8447;52.630;4.734;2023-04-08T09:50:30;5.60;;;5.00;;
16667;SDS011;8447;52.630;4.734;2023-04-08T09:52:59;6.13;;;5.10;;
16667;SDS011;8447;52.630;4.734;2023-04-08T09:55:26;6.20;;;5.60;;
16667;SDS011;8447;52.630;4.734;2023-04-08T09:57:57;7.77;;;5.47;;
16667;SDS011;8447;52.630;4.734;2023-04-08T10:00:27;6.00;;;5.40;;
16667;SDS011;8447;52.630;4.734;2023-04-08T10:03:03;6.43;;;5.77;;
16667;SDS011;8447;52.630;4.734;2023-04-08T10:05:31;5.83;;;5.30;;
16667;SDS011;8447;52.630;4.734;2023-04-08T10:07:58;6.43;;;5.83;;
16667;SDS011;8447;52.630;4.734;2023-04-08T10:10:25;7.57;;;5.70;;
16667;SDS011;8447;52.630;4.734;2023-04-08T10:12:52;6.37;;;5.80;;
16667;SDS011;8447;52.630;4.734;2023-04-08T10:15:21;5.60;;;5.10;;
16667;SDS011;8447;52.630;4.734;2023-04-08T10:17:48;7.20;;;5.40;;
16667;SDS011;8447;52.630;4.734;2023-04-08T10:23:01;6.10;;;5.60;;
16667;SDS011;8447;52.630;4.734;2023-04-08T10:25:28;5.93;;;5.33;;
16667;SDS011;8447;52.630;4.734;2023-04-08T10:27:56;5.67;;;5.17;;
16667;SDS011;8447;52.630;4.734;2023-04-08T10:33:08;5.87;;;5.30;;
16667;SDS011;8447;52.630;4.734;2023-04-08T10:35:35;5.70;;;5.13;;
16667;SDS011;8447;52.630;4.734;2023-04-08T10:38:03;6.30;;;5.70;;
16667;SDS011;8447;52.630;4.734;2023-04-08T10:40:34;5.33;;;4.83;;
16667;SDS011;8447;52.630;4.734;2023-04-08T10:43:01;5.97;;;5.37;;
16667;SDS011;8447;52.630;4.734;2023-04-08T10:45:28;5.73;;;5.13;;
16667;SDS011;8447;52.630;4.734;2023-04-08T10:47:54;6.20;;;5.53;;
16667;SDS011;8447;52.630;4.734;2023-04-08T10:50:20;6.27;;;5.40;;
16667;SDS011;8447;52.630;4.734;2023-04-08T10:52:48;6.43;;;5.67;;
16667;SDS011;8447;52.630;4.734;2023-04-08T10:55:19;5.73;;;5.23;;
16667;SDS011;8447;52.630;4.734;2023-04-08T10:57:47;8.13;;;5.43;;
16667;SDS011;8447;52.630;4.734;2023-04-08T11:00:16;6.40;;;5.30;;
16667;SDS011;8447;52.630;4.734;2023-04-08T11:02:43;6.20;;;5.60;;
16667;SDS011;8447;52.630;4.734;2023-04-08T11:05:09;4.90;;;4.40;;
16667;SDS011;8447;52.630;4.734;2023-04-08T11:07:38;5.23;;;4.73;;
16667;SDS011;8447;52.630;4.734;2023-04-08T11:10:06;5.70;;;5.17;;
16667;SDS011;8447;52.630;4.734;2023-04-08T11:12:34;6.83;;;5.40;;
16667;SDS011;8447;52.630;4.734;2023-04-08T11:15:01;5.00;;;4.50;;
16667;SDS011;8447;52.630;4.734;2023-04-08T11:17:28;5.87;;;4.60;;
16667;SDS011;8447;52.630;4.734;2023-04-08T11:19:55;4.80;;;4.40;;
16667;SDS011;8447;52.630;4.734;2023-04-08T11:22:26;5.10;;;4.63;;
16667;SDS011;8447;52.630;4.734;2023-04-08T11:24:55;6.20;;;4.67;;
16667;SDS011;8447;52.630;4.734;2023-04-08T11:27:22;5.10;;;4.60;;
16667;SDS011;8447;52.630;4.734;2023-04-08T11:29:51;5.30;;;4.80;;
16667;SDS011;8447;52.630;4.734;2023-04-08T11:32:19;6.47;;;5.60;;
16667;SDS011;8447;52.630;4.734;2023-04-08T11:34:45;6.53;;;5.33;;
16667;SDS011;8447;52.630;4.734;2023-04-08T11:37:12;6.33;;;5.03;;
16667;SDS011;8447;52.630;4.734;2023-04-08T11:39:39;6.10;;;5.60;;
16667;SDS011;8447;52.630;4.734;2023-04-08T11:42:06;6.23;;;5.63;;
16667;SDS011;8447;52.630;4.734;2023-04-08T11:44:32;6.87;;;5.70;;
16667;SDS011;8447;52.630;4.734;2023-04-08T11:47:00;7.10;;;6.40;;
16667;SDS011;8447;52.630;4.734;2023-04-08T11:49:27;6.97;;;5.93;;
16667;SDS011;8447;52.630;4.734;2023-04-08T11:51:53;7.03;;;6.43;;
16667;SDS011;8447;52.630;4.734;2023-04-08T11:54:26;7.33;;;6.13;;
16667;SDS011;8447;52.630;4.734;2023-04-08T11:56:53;6.80;;;6.20;;
16667;SDS011;8447;52.630;4.734;2023-04-08T11:59:20;7.57;;;6.73;;
16667;SDS011;8447;52.630;4.734;2023-04-08T12:01:46;7.13;;;6.43;;
16667;SDS011;8447;52.630;4.734;2023-04-08T12:04:14;6.87;;;6.27;;
16667;SDS011;8447;52.630;4.734;2023-04-08T12:06:40;7.57;;;6.83;;
16667;SDS011;8447;52.630;4.734;2023-04-08T12:09:07;7.07;;;6.47;;
16667;SDS011;8447;52.630;4.734;2023-04-08T12:11:34;8.30;;;7.13;;
16667;SDS011;8447;52.630;4.734;2023-04-08T12:14:00;7.73;;;7.03;;
16667;SDS011;8447;52.630;4.734;2023-04-08T12:16:26;8.43;;;7.73;;
16667;SDS011;8447;52.630;4.734;2023-04-08T12:18:53;8.93;;;8.00;;
16667;SDS011;8447;52.630;4.734;2023-04-08T12:21:20;8.13;;;7.33;;
16667;SDS011;8447;52.630;4.734;2023-04-08T12:23:47;8.03;;;7.23;;
16667;SDS011;8447;52.630;4.734;2023-04-08T12:26:13;7.97;;;7.00;;
16667;SDS011;8447;52.630;4.734;2023-04-08T12:28:40;7.33;;;6.50;;
16667;SDS011;8447;52.630;4.734;2023-04-08T12:31:06;8.33;;;7.43;;
16667;SDS011;8447;52.630;4.734;2023-04-08T12:33:32;9.57;;;8.57;;
16667;SDS011;8447;52.630;4.734;2023-04-08T12:35:59;10.77;;;8.13;;
16667;SDS011;8447;52.630;4.734;2023-04-08T12:38:26;8.97;;;8.03;;
16667;SDS011;8447;52.630;4.734;2023-04-08T12:40:53;8.47;;;7.40;;
16667;SDS011;8447;52.630;4.734;2023-04-08T12:43:20;8.03;;;7.23;;
16667;SDS011;8447;52.630;4.734;2023-04-08T12:45:47;8.00;;;7.20;;
16667;SDS011;8447;52.630;4.734;2023-04-08T12:48:14;8.63;;;7.50;;
16667;SDS011;8447;52.630;4.734;2023-04-08T12:50:40;10.80;;;7.60;;
16667;SDS011;8447;52.630;4.734;2023-04-08T12:53:06;8.47;;;7.57;;
16667;SDS011;8447;52.630;4.734;2023-04-08T12:55:34;9.00;;;8.10;;
16667;SDS011;8447;52.630;4.734;2023-04-08T12:58:01;7.97;;;7.17;;
16667;SDS011;8447;52.630;4.734;2023-04-08T13:00:27;7.60;;;6.90;;
16667;SDS011;8447;52.630;4.734;2023-04-08T13:02:53;6.90;;;6.20;;
16667;SDS011;8447;52.630;4.734;2023-04-08T13:05:20;7.60;;;6.77;;
16667;SDS011;8447;52.630;4.734;2023-04-08T13:07:47;7.93;;;6.70;;
16667;SDS011;8447;52.630;4.734;2023-04-08T13:10:13;7.50;;;6.70;;
16667;SDS011;8447;52.630;4.734;2023-04-08T13:12:41;8.23;;;7.50;;
16667;SDS011;8447;52.630;4.734;2023-04-08T13:15:08;8.27;;;6.80;;
16667;SDS011;8447;52.630;4.734;2023-04-08T13:17:34;8.43;;;7.07;;
16667;SDS011;8447;52.630;4.734;2023-04-08T13:20:01;8.93;;;7.07;;
16667;SDS011;8447;52.630;4.734;2023-04-08T13:22:27;8.17;;;7.33;;
16667;SDS011;8447;52.630;4.734;2023-04-08T13:24:53;8.00;;;7.20;;
16667;SDS011;8447;52.630;4.734;2023-04-08T13:27:20;9.13;;;7.43;;
16667;SDS011;8447;52.630;4.734;2023-04-08T13:29:47;8.23;;;6.77;;
16667;SDS011;8447;52.630;4.734;2023-04-08T13:32:14;7.23;;;6.53;;
16667;SDS011;8447;52.630;4.734;2023-04-08T13:34:40;7.00;;;6.30;;
16667;SDS011;8447;52.630;4.734;2023-04-08T13:37:07;7.83;;;7.03;;
16667;SDS011;8447;52.630;4.734;2023-04-08T13:39:34;8.40;;;7.37;;
16667;SDS011;8447;52.630;4.734;2023-04-08T13:42:01;7.83;;;7.00;;
16667;SDS011;8447;52.630;4.734;2023-04-08T13:44:27;9.93;;;8.93;;
16667;SDS011;8447;52.630;4.734;2023-04-08T13:46:55;7.90;;;6.97;;
16667;SDS011;8447;52.630;4.734;2023-04-08T13:49:21;7.70;;;6.90;;
16667;SDS011;8447;52.630;4.734;2023-04-08T13:51:47;7.63;;;6.80;;
16667;SDS011;8447;52.630;4.734;2023-04-08T13:54:14;8.93;;;6.70;;
16667;SDS011;8447;52.630;4.734;2023-04-08T13:56:40;7.90;;;7.17;;
16667;SDS011;8447;52.630;4.734;2023-04-08T13:59:07;8.93;;;7.03;;
16667;SDS011;8447;52.630;4.734;2023-04-08T14:01:34;6.97;;;6.27;;
16667;SDS011;8447;52.630;4.734;2023-04-08T14:04:02;7.67;;;6.67;;
16667;SDS011;8447;52.630;4.734;2023-04-08T14:06:28;6.77;;;6.07;;
16667;SDS011;8447;52.630;4.734;2023-04-08T14:08:55;6.33;;;5.67;;
16667;SDS011;8447;52.630;4.734;2023-04-08T14:11:21;6.27;;;5.00;;
16667;SDS011;8447;52.630;4.734;2023-04-08T14:13:47;6.30;;;5.70;;
16667;SDS011;8447;52.630;4.734;2023-04-08T14:16:14;5.40;;;4.90;;
16667;SDS011;8447;52.630;4.734;2023-04-08T14:18:41;6.50;;;5.50;;
16667;SDS011;8447;52.630;4.734;2023-04-08T14:21:08;6.43;;;5.83;;
16667;SDS011;8447;52.630;4.734;2023-04-08T14:23:36;5.97;;;5.37;;
16667;SDS011;8447;52.630;4.734;2023-04-08T14:26:03;6.27;;;5.53;;
16667;SDS011;8447;52.630;4.734;2023-04-08T14:28:29;6.40;;;5.73;;
16667;SDS011;8447;52.630;4.734;2023-04-08T14:30:56;5.90;;;5.30;;
16667;SDS011;8447;52.630;4.734;2023-04-08T14:33:22;6.43;;;5.60;;
16667;SDS011;8447;52.630;4.734;2023-04-08T14:35:48;6.60;;;5.07;;
16667;SDS011;8447;52.630;4.734;2023-04-08T14:38:16;6.83;;;5.93;;
16667;SDS011;8447;52.630;4.734;2023-04-08T14:40:44;6.20;;;5.60;;
16667;SDS011;8447;52.630;4.734;2023-04-08T14:43:11;6.00;;;5.13;;
16667;SDS011;8447;52.630;4.734;2023-04-08T14:45:37;6.07;;;5.47;;
16667;SDS011;8447;52.630;4.734;2023-04-08T14:48:04;7.53;;;6.00;;
16667;SDS011;8447;52.630;4.734;2023-04-08T14:50:30;6.23;;;5.63;;
16667;SDS011;8447;52.630;4.734;2023-04-08T14:52:57;6.73;;;5.70;;
16667;SDS011;8447;52.630;4.734;2023-04-08T14:55:25;5.47;;;4.70;;
16667;SDS011;8447;52.630;4.734;2023-04-08T14:57:52;7.77;;;5.50;;
16667;SDS011;8447;52.630;4.734;2023-04-08T15:00:19;7.37;;;6.40;;
16667;SDS011;8447;52.630;4.734;2023-04-08T15:02:45;5.93;;;5.33;;
16667;SDS011;8447;52.630;4.734;2023-04-08T15:05:11;6.67;;;6.07;;